sensor_id;sensor_type;location;lat;lon;timestamp;temperature;humidity
55719;DHT22;41623;46.104;19.656;2023-07-31T00:01:31;615.20;1689.60
55719;DHT22;41623;46.104;19.656;2023-07-31T00:03:56;615.20;1689.60
55719;DHT22;41623;46.104;19.656;2023-07-31T00:06:22;615.30;1689.60
55719;DHT22;41623;46.104;19.656;2023-07-31T00:08:48;615.30;1689.60
55719;DHT22;41623;46.104;19.656;2023-07-31T00:11:14;615.30;1689.60
55719;DHT22;41623;46.104;19.656;2023-07-31T00:13:39;615.30;1664.00
55719;DHT22;41623;46.104;19.656;2023-07-31T00:16:06;615.30;1689.60
55719;DHT22;41623;46.104;19.656;2023-07-31T00:18:31;615.30;1664.00
55719;DHT22;41623;46.104;19.656;2023-07-31T00:20:57;615.30;1689.60
55719;DHT22;41623;46.104;19.656;2023-07-31T00:23:23;615.30;1689.60
55719;DHT22;41623;46.104;19.656;2023-07-31T00:25:48;615.20;1689.60
55719;DHT22;41623;46.104;19.656;2023-07-31T00:28:14;615.20;1664.00
55719;DHT22;41623;46.104;19.656;2023-07-31T00:33:06;615.20;1792.00
55719;DHT22;41623;46.104;19.656;2023-07-31T00:35:31;615.00;1664.00
55719;DHT22;41623;46.104;19.656;2023-07-31T00:37:58;615.00;1715.20
55719;DHT22;41623;46.104;19.656;2023-07-31T00:40:24;614.90;1715.20
55719;DHT22;41623;46.104;19.656;2023-07-31T00:42:49;614.90;1715.20
55719;DHT22;41623;46.104;19.656;2023-07-31T00:45:15;614.90;1715.20
55719;DHT22;41623;46.104;19.656;2023-07-31T00:47:41;614.80;1715.20
55719;DHT22;41623;46.104;19.656;2023-07-31T00:50:07;614.80;1715.20
55719;DHT22;41623;46.104;19.656;2023-07-31T00:52:33;614.80;1689.60
55719;DHT22;41623;46.104;19.656;2023-07-31T00:54:59;614.80;1715.20
55719;DHT22;41623;46.104;19.656;2023-07-31T00:57:25;614.80;1715.20
55719;DHT22;41623;46.104;19.656;2023-07-31T00:59:51;614.80;1715.20
55719;DHT22;41623;46.104;19.656;2023-07-31T01:02:17;614.80;1715.20
55719;DHT22;41623;46.104;19.656;2023-07-31T01:04:43;614.90;1689.60
55719;DHT22;41623;46.104;19.656;2023-07-31T01:07:45;614.90;1689.60
55719;DHT22;41623;46.104;19.656;2023-07-31T01:10:31;614.90;1689.60
55719;DHT22;41623;46.104;19.656;2023-07-31T01:12:59;614.90;1689.60
55719;DHT22;41623;46.104;19.656;2023-07-31T01:15:25;614.90;1689.60
55719;DHT22;41623;46.104;19.656;2023-07-31T01:17:51;614.90;1689.60
55719;DHT22;41623;46.104;19.656;2023-07-31T01:20:27;614.90;1689.60
55719;DHT22;41623;46.104;19.656;2023-07-31T01:26:21;614.90;1689.60
55719;DHT22;41623;46.104;19.656;2023-07-31T01:29:10;614.90;1689.60
55719;DHT22;41623;46.104;19.656;2023-07-31T01:31:38;614.90;1689.60
55719;DHT22;41623;46.104;19.656;2023-07-31T01:34:06;614.90;1689.60
55719;DHT22;41623;46.104;19.656;2023-07-31T01:36:34;614.90;1689.60
55719;DHT22;41623;46.104;19.656;2023-07-31T01:39:01;614.80;1689.60
55719;DHT22;41623;46.104;19.656;2023-07-31T01:41:27;614.90;1689.60
55719;DHT22;41623;46.104;19.656;2023-07-31T01:43:53;614.80;1689.60
55719;DHT22;41623;46.104;19.656;2023-07-31T01:46:19;614.80;1689.60
55719;DHT22;41623;46.104;19.656;2023-07-31T01:48:45;614.90;1689.60
55719;DHT22;41623;46.104;19.656;2023-07-31T01:51:10;614.90;1689.60
55719;DHT22;41623;46.104;19.656;2023-07-31T01:53:36;614.90;1689.60
55719;DHT22;41623;46.104;19.656;2023-07-31T01:56:02;614.80;1715.20
55719;DHT22;41623;46.104;19.656;2023-07-31T01:58:28;614.80;1689.60
55719;DHT22;41623;46.104;19.656;2023-07-31T02:00:54;614.80;1689.60
55719;DHT22;41623;46.104;19.656;2023-07-31T02:03:19;614.80;1715.20
55719;DHT22;41623;46.104;19.656;2023-07-31T02:05:49;614.80;1715.20
55719;DHT22;41623;46.104;19.656;2023-07-31T02:08:15;614.70;1689.60
55719;DHT22;41623;46.104;19.656;2023-07-31T02:10:41;614.70;1689.60
55719;DHT22;41623;46.104;19.656;2023-07-31T02:13:07;614.70;1689.60
55719;DHT22;41623;46.104;19.656;2023-07-31T02:15:34;614.70;1689.60
55719;DHT22;41623;46.104;19.656;2023-07-31T02:18:00;614.60;1689.60
55719;DHT22;41623;46.104;19.656;2023-07-31T02:20:25;614.70;1689.60
55719;DHT22;41623;46.104;19.656;2023-07-31T02:22:51;614.70;1689.60
55719;DHT22;41623;46.104;19.656;2023-07-31T02:25:17;614.60;1689.60
55719;DHT22;41623;46.104;19.656;2023-07-31T02:27:43;614.60;1689.60
55719;DHT22;41623;46.104;19.656;2023-07-31T02:30:09;614.50;1689.60
55719;DHT22;41623;46.104;19.656;2023-07-31T02:32:35;614.50;1689.60
55719;DHT22;41623;46.104;19.656;2023-07-31T02:35:01;614.50;1689.60
55719;DHT22;41623;46.104;19.656;2023-07-31T02:37:26;614.60;1689.60
55719;DHT22;41623;46.104;19.656;2023-07-31T02:39:54;614.60;1689.60
55719;DHT22;41623;46.104;19.656;2023-07-31T02:42:20;614.60;1689.60
55719;DHT22;41623;46.104;19.656;2023-07-31T02:44:46;614.60;1689.60
55719;DHT22;41623;46.104;19.656;2023-07-31T02:47:11;614.60;1689.60
55719;DHT22;41623;46.104;19.656;2023-07-31T02:49:37;614.70;1689.60
55719;DHT22;41623;46.104;19.656;2023-07-31T02:52:03;614.70;1689.60
55719;DHT22;41623;46.104;19.656;2023-07-31T02:54:29;614.70;1689.60
55719;DHT22;41623;46.104;19.656;2023-07-31T02:56:55;614.70;1689.60
55719;DHT22;41623;46.104;19.656;2023-07-31T02:59:20;614.70;1689.60
55719;DHT22;41623;46.104;19.656;2023-07-31T03:01:46;614.70;1664.00
55719;DHT22;41623;46.104;19.656;2023-07-31T03:04:12;614.70;1689.60
55719;DHT22;41623;46.104;19.656;2023-07-31T03:06:37;614.70;1664.00
55719;DHT22;41623;46.104;19.656;2023-07-31T03:09:03;614.70;1664.00
55719;DHT22;41623;46.104;19.656;2023-07-31T03:11:29;614.70;1664.00
55719;DHT22;41623;46.104;19.656;2023-07-31T03:13:55;614.60;1664.00
55719;DHT22;41623;46.104;19.656;2023-07-31T03:16:20;614.50;1689.60
55719;DHT22;41623;46.104;19.656;2023-07-31T03:18:46;614.40;1689.60
55719;DHT22;41623;46.104;19.656;2023-07-31T03:21:12;614.40;1689.60
55719;DHT22;41623;46.104;19.656;2023-07-31T03:23:38;589.70;1715.20
55719;DHT22;41623;46.104;19.656;2023-07-31T03:26:06;589.70;1715.20
55719;DHT22;41623;46.104;19.656;2023-07-31T03:28:32;589.70;1689.60
55719;DHT22;41623;46.104;19.656;2023-07-31T03:30:58;589.70;1715.20
55719;DHT22;41623;46.104;19.656;2023-07-31T03:33:24;614.40;1715.20
55719;DHT22;41623;46.104;19.656;2023-07-31T03:35:50;614.40;1715.20
55719;DHT22;41623;46.104;19.656;2023-07-31T03:38:16;614.40;1715.20
55719;DHT22;41623;46.104;19.656;2023-07-31T07:29:50;615.10;1484.80
55719;DHT22;41623;46.104;19.656;2023-07-31T07:32:18;614.90;1510.40
55719;DHT22;41623;46.104;19.656;2023-07-31T07:34:44;615.00;1459.20
55719;DHT22;41623;46.104;19.656;2023-07-31T07:37:11;614.80;1433.60
55719;DHT22;41623;46.104;19.656;2023-07-31T07:39:37;614.80;1433.60
55719;DHT22;41623;46.104;19.656;2023-07-31T07:42:03;614.70;1433.60
55719;DHT22;41623;46.104;19.656;2023-07-31T07:44:29;614.70;1433.60
55719;DHT22;41623;46.104;19.656;2023-07-31T07:46:54;614.70;1433.60
55719;DHT22;41623;46.104;19.656;2023-07-31T07:49:20;614.70;1433.60
55719;DHT22;41623;46.104;19.656;2023-07-31T07:51:48;614.70;1433.60
55719;DHT22;41623;46.104;19.656;2023-07-31T07:54:15;614.70;1408.00
55719;DHT22;41623;46.104;19.656;2023-07-31T07:56:42;614.80;1408.00
55719;DHT22;41623;46.104;19.656;2023-07-31T07:59:08;614.80;1408.00
55719;DHT22;41623;46.104;19.656;2023-07-31T08:01:34;614.80;1408.00
55719;DHT22;41623;46.104;19.656;2023-07-31T08:03:59;614.80;1408.00
55719;DHT22;41623;46.104;19.656;2023-07-31T08:06:25;614.80;1433.60
55719;DHT22;41623;46.104;19.656;2023-07-31T08:08:51;614.90;1433.60
55719;DHT22;41623;46.104;19.656;2023-07-31T08:21:02;640.10;1356.80
55719;DHT22;41623;46.104;19.656;2023-07-31T08:23:28;615.30;1356.80
55719;DHT22;41623;46.104;19.656;2023-07-31T08:25:54;615.20;1356.80
55719;DHT22;41623;46.104;19.656;2023-07-31T08:28:19;615.20;1356.80
55719;DHT22;41623;46.104;19.656;2023-07-31T08:30:45;615.30;1356.80
55719;DHT22;41623;46.104;19.656;2023-07-31T08:33:11;615.20;1331.20
55719;DHT22;41623;46.104;19.656;2023-07-31T08:35:37;615.30;1331.20
55719;DHT22;41623;46.104;19.656;2023-07-31T08:38:02;615.30;1305.60
55719;DHT22;41623;46.104;19.656;2023-07-31T08:40:29;615.30;1305.60
55719;DHT22;41623;46.104;19.656;2023-07-31T08:42:55;615.30;1331.20
55719;DHT22;41623;46.104;19.656;2023-07-31T08:45:28;640.00;1305.60
55719;DHT22;41623;46.104;19.656;2023-07-31T08:47:55;640.00;1305.60
55719;DHT22;41623;46.104;19.656;2023-07-31T08:50:22;640.00;1280.00
55719;DHT22;41623;46.104;19.656;2023-07-31T08:52:50;640.00;1280.00
55719;DHT22;41623;46.104;19.656;2023-07-31T08:55:16;640.10;1228.80
55719;DHT22;41623;46.104;19.656;2023-07-31T08:57:43;640.00;1228.80
55719;DHT22;41623;46.104;19.656;2023-07-31T09:00:10;640.00;1203.20
55719;DHT22;41623;46.104;19.656;2023-07-31T09:02:48;640.10;1177.60
55719;DHT22;41623;46.104;19.656;2023-07-31T09:05:17;640.10;1203.20
55719;DHT22;41623;46.104;19.656;2023-07-31T09:07:45;640.10;1177.60
55719;DHT22;41623;46.104;19.656;2023-07-31T09:10:14;640.10;1177.60
55719;DHT22;41623;46.104;19.656;2023-07-31T09:12:40;640.10;1203.20
55719;DHT22;41623;46.104;19.656;2023-07-31T09:15:06;640.10;1177.60
55719;DHT22;41623;46.104;19.656;2023-07-31T09:22:39;640.40;1177.60
55719;DHT22;41623;46.104;19.656;2023-07-31T09:25:21;640.20;1203.20
55719;DHT22;41623;46.104;19.656;2023-07-31T09:27:51;640.30;1177.60
55719;DHT22;41623;46.104;19.656;2023-07-31T09:30:17;640.50;1356.80
55719;DHT22;41623;46.104;19.656;2023-07-31T09:32:47;640.30;1152.00
55719;DHT22;41623;46.104;19.656;2023-07-31T09:37:58;640.70;1152.00
55719;DHT22;41623;46.104;19.656;2023-07-31T09:40:33;640.50;1152.00
55719;DHT22;41623;46.104;19.656;2023-07-31T09:43:04;640.40;1152.00
55719;DHT22;41623;46.104;19.656;2023-07-31T09:45:35;640.40;1152.00
55719;DHT22;41623;46.104;19.656;2023-07-31T09:48:07;640.40;1126.40
55719;DHT22;41623;46.104;19.656;2023-07-31T09:50:39;640.50;1126.40
55719;DHT22;41623;46.104;19.656;2023-07-31T09:53:09;640.50;1152.00
55719;DHT22;41623;46.104;19.656;2023-07-31T09:55:36;640.50;1126.40
55719;DHT22;41623;46.104;19.656;2023-07-31T09:58:04;640.50;1152.00
55719;DHT22;41623;46.104;19.656;2023-07-31T10:00:31;640.50;1126.40
55719;DHT22;41623;46.104;19.656;2023-07-31T10:03:02;640.50;1126.40
55719;DHT22;41623;46.104;19.656;2023-07-31T10:05:34;640.50;1126.40
55719;DHT22;41623;46.104;19.656;2023-07-31T10:07:59;640.50;1152.00
55719;DHT22;41623;46.104;19.656;2023-07-31T10:10:26;640.50;1126.40
